Time;durP1;ratioP1;P1;durP2;ratioP2;P2;SDS_P1;SDS_P2;PMS_P1;PMS_P2;Temp;Humidity;BMP_temperature;BMP_pressure;BME280_temperature;BME280_humidity;BME280_pressure;Samples;Min_cycle;Max_cycle;Signal;HPM_P1;HPM_P2
2021/12/15 00:00:57;;;;;;;;;;;;;;;6.13;54.33;101040.13;4402560;32;20361;-78
2021/12/15 00:03:24;;;;;;;;;;;;;;;6.18;54.34;101036.97;4391240;32;781651;-79
2021/12/15 00:05:51;;;;;;;;;;;;;;;6.30;53.92;101044.44;4402679;32;20785;-79
2021/12/15 00:08:19;;;;;;;;;;;;;;;6.32;53.74;101042.84;4416203;32;20045;-78
2021/12/15 00:10:47;;;;;;;;;;;;;;;6.37;53.66;101036.25;4415984;32;20023;-79
2021/12/15 00:13:14;;;;;;;;;;;;;;;6.26;53.64;101021.94;4416320;32;20535;-79
2021/12/15 00:15:42;;;;;;;;;;;;;;;6.30;53.64;101029.00;4416647;32;19978;-80
2021/12/15 00:18:09;;;;;;;;;;;;;;;6.22;53.73;101030.28;4415448;32;20064;-79
2021/12/15 00:20:36;;;;;;;;;;;;;;;6.26;53.36;101032.25;4416576;32;20021;-78
2021/12/15 00:23:04;;;;;;;;;;;;;;;6.22;53.64;101026.06;4416041;32;19992;-79
2021/12/15 00:25:32;;;;;;;;;;;;;;;6.38;53.32;101022.59;4416526;32;20016;-79
2021/12/15 00:27:59;;;;;;;;;;;;;;;6.27;53.66;101019.44;4401787;32;20003;-79
2021/12/15 00:30:26;;;;;;;;;;;;;;;6.43;53.09;101021.13;4392236;32;19990;-79
2021/12/15 00:32:53;;;;;;;;;;;;;;;6.27;53.28;101023.72;4403703;32;19970;-79
2021/12/15 00:35:22;;;;;;;;;;;;;;;6.32;52.94;101026.50;4400868;32;19974;-79
2021/12/15 00:37:49;;;;;;;;;;;;;;;6.34;52.63;101025.78;4399785;32;19992;-79
2021/12/15 00:40:18;;;;;;;;;;;;;;;6.36;52.62;101026.75;4400698;32;19982;-79
2021/12/15 00:42:45;;;;;;;;;;;;;;;6.36;52.67;101039.63;4398498;32;20486;-78
2021/12/15 00:45:14;;;;;;;;;;;;;;;6.41;52.57;101038.16;4401059;32;19997;-79
2021/12/15 00:47:44;;;;;;;;;;;;;;;6.60;52.13;101039.12;4415363;32;19986;-79
2021/12/15 00:50:12;;;;;;;;;;;;;;;6.38;52.82;101047.41;4412429;32;19996;-79
2021/12/15 00:52:39;;;;;;;;;;;;;;;6.27;53.31;101046.84;4415929;32;20053;-77
2021/12/15 00:55:08;;;;;;;;;;;;;;;6.18;53.45;101051.50;4415344;32;20033;-78
2021/12/15 00:57:35;;;;;;;;;;;;;;;6.27;53.26;101049.44;4401830;32;19974;-78
2021/12/15 01:00:07;;;;;;;;;;;;;;;6.23;53.28;101052.66;4415956;32;20453;-78
2021/12/15 01:02:34;;;;;;;;;;;;;;;6.12;53.65;101051.19;4401998;32;20038;-79
2021/12/15 01:05:02;;;;;;;;;;;;;;;6.18;53.60;101056.66;4414646;32;19986;-78
2021/12/15 01:07:28;;;;;;;;;;;;;;;6.33;53.09;101057.47;4415866;32;19974;-78
2021/12/15 01:09:58;;;;;;;;;;;;;;;6.19;53.52;101055.84;4415632;32;19989;-79
2021/12/15 01:20:48;;;;;;;;;;;;;;;6.34;52.04;101059.22;4402039;32;19993;-79
2021/12/15 01:23:18;;;;;;;;;;;;;;;6.32;52.23;101055.72;4401809;32;19996;-79
2021/12/15 01:25:51;;;;;;;;;;;;;;;6.39;51.81;101054.34;4415064;32;20689;-80
2021/12/15 01:28:20;;;;;;;;;;;;;;;6.31;52.00;101061.63;4414695;32;19990;-80
2021/12/15 01:30:47;;;;;;;;;;;;;;;6.27;51.69;101059.72;4415319;32;20049;-79
2021/12/15 01:33:15;;;;;;;;;;;;;;;6.16;52.15;101060.81;4415543;32;20434;-79
2021/12/15 01:35:42;;;;;;;;;;;;;;;6.18;52.09;101054.06;4414950;32;19994;-78
2021/12/15 01:38:10;;;;;;;;;;;;;;;6.11;52.17;101052.00;4415274;32;20036;-77
2021/12/15 01:40:40;;;;;;;;;;;;;;;5.83;52.93;101045.31;4401189;32;20383;-78
2021/12/15 01:43:16;;;;;;;;;;;;;;;5.81;53.20;101041.81;4408937;32;19978;-79
2021/12/15 01:48:30;;;;;;;;;;;;;;;6.04;52.45;101056.78;4414296;32;19986;-78
2021/12/15 01:50:57;;;;;;;;;;;;;;;6.08;52.14;101059.53;4414850;32;19978;-79
2021/12/15 01:53:24;;;;;;;;;;;;;;;6.20;51.77;101057.63;4415552;32;19974;-80
2021/12/15 01:55:52;;;;;;;;;;;;;;;6.01;52.28;101060.91;4415182;32;20007;-80
2021/12/15 01:58:21;;;;;;;;;;;;;;;5.93;52.85;101057.87;4415469;32;19997;-79
2021/12/15 02:00:50;;;;;;;;;;;;;;;5.78;53.28;101052.78;4414938;32;20393;-80
2021/12/15 02:03:17;;;;;;;;;;;;;;;5.98;52.82;101051.31;4401471;32;19974;-80
2021/12/15 02:05:45;;;;;;;;;;;;;;;5.95;53.01;101056.28;4401572;32;19997;-79
2021/12/15 02:08:13;;;;;;;;;;;;;;;5.95;52.88;101058.00;4397942;32;19990;-79
2021/12/15 02:10:40;;;;;;;;;;;;;;;6.01;52.96;101051.50;4413342;32;20055;-80
2021/12/15 02:13:08;;;;;;;;;;;;;;;5.97;52.88;101054.72;4415443;32;20317;-78
2021/12/15 02:15:37;;;;;;;;;;;;;;;6.12;52.24;101053.75;4415089;32;20331;-79
2021/12/15 02:18:05;;;;;;;;;;;;;;;6.02;52.78;101057.50;4416820;32;20018;-79
2021/12/15 02:20:35;;;;;;;;;;;;;;;6.10;52.33;101055.38;4417321;32;19985;-78
2021/12/15 02:23:05;;;;;;;;;;;;;;;6.00;52.48;101044.59;4402214;32;20002;-78
2021/12/15 02:25:32;;;;;;;;;;;;;;;5.82;53.37;101043.56;4416728;32;19993;-78
2021/12/15 02:28:01;;;;;;;;;;;;;;;5.89;53.33;101040.50;4417374;32;19986;-81
2021/12/15 02:38:18;;;;;;;;;;;;;;;5.86;53.43;101055.75;4405179;32;20045;-80
2021/12/15 02:40:45;;;;;;;;;;;;;;;5.96;53.30;101058.06;4400102;32;19995;-79
2021/12/15 02:43:12;;;;;;;;;;;;;;;5.85;53.58;101064.28;4417077;32;20012;-79
2021/12/15 02:45:39;;;;;;;;;;;;;;;5.90;53.35;101052.56;4416174;32;19990;-78
2021/12/15 02:48:06;;;;;;;;;;;;;;;6.13;52.21;101060.69;4416039;32;20034;-80
2021/12/15 02:50:34;;;;;;;;;;;;;;;5.84;53.39;101062.53;4402424;32;20064;-79
2021/12/15 02:53:01;;;;;;;;;;;;;;;5.82;53.68;101053.84;4403155;32;20159;-77
2021/12/15 02:55:28;;;;;;;;;;;;;;;5.79;54.03;101045.97;4416220;32;19993;-78
2021/12/15 02:57:55;;;;;;;;;;;;;;;5.84;53.82;101047.09;4415502;32;19985;-79
2021/12/15 03:00:31;;;;;;;;;;;;;;;5.86;53.47;101050.63;4416714;32;20351;-79
2021/12/15 03:03:22;;;;;;;;;;;;;;;5.91;53.78;101045.75;4416761;32;20041;-79
2021/12/15 03:05:51;;;;;;;;;;;;;;;5.87;53.97;101049.84;4416847;32;19994;-79
2021/12/15 03:08:23;;;;;;;;;;;;;;;5.88;53.94;101043.91;4417136;32;19993;-79
2021/12/15 03:16:26;;;;;;;;;;;;;;;5.98;53.41;101041.03;4401741;32;19993;-79
2021/12/15 03:18:52;;;;;;;;;;;;;;;6.10;52.97;101039.94;4407102;32;20008;-79
2021/12/15 03:21:22;;;;;;;;;;;;;;;6.09;53.16;101038.16;4421417;32;19996;-79
2021/12/15 03:23:53;;;;;;;;;;;;;;;6.16;52.77;101035.09;4399517;32;19992;-78
2021/12/15 03:26:23;;;;;;;;;;;;;;;5.88;53.52;101025.91;4401105;32;20402;-79
2021/12/15 03:39:23;;;;;;;;;;;;;;;5.94;53.84;101023.69;4416532;32;19985;-80
2021/12/15 03:41:57;;;;;;;;;;;;;;;6.00;53.74;101024.03;4416277;32;20010;-79
2021/12/15 03:44:24;;;;;;;;;;;;;;;5.69;54.34;101030.84;4402368;32;20479;-80
2021/12/15 03:46:51;;;;;;;;;;;;;;;5.69;54.54;101026.59;4416569;32;20031;-80
2021/12/15 03:49:17;;;;;;;;;;;;;;;5.78;54.26;101031.34;4415571;32;20000;-79
2021/12/15 03:51:44;;;;;;;;;;;;;;;6.07;53.24;101040.66;4416363;32;20000;-78
2021/12/15 03:54:12;;;;;;;;;;;;;;;5.83;54.00;101040.19;4415938;32;19989;-81
2021/12/15 03:56:43;;;;;;;;;;;;;;;5.80;53.99;101035.75;4416248;32;20044;-80
2021/12/15 03:59:10;;;;;;;;;;;;;;;5.85;53.81;101038.59;4416444;32;20004;-82
2021/12/15 04:01:37;;;;;;;;;;;;;;;5.83;53.85;101035.91;4401805;32;20311;-81
2021/12/15 04:04:06;;;;;;;;;;;;;;;5.81;54.06;101036.66;4416356;32;20000;-82
2021/12/15 04:06:34;;;;;;;;;;;;;;;5.71;54.30;101031.78;4415618;32;19986;-79
2021/12/15 04:09:02;;;;;;;;;;;;;;;5.87;53.62;101026.72;4416165;32;20028;-81
2021/12/15 04:11:33;;;;;;;;;;;;;;;5.75;53.87;101031.19;4414687;32;20012;-81
2021/12/15 04:14:10;;;;;;;;;;;;;;;5.76;53.92;101038.09;4416471;32;20379;-81
2021/12/15 04:16:45;;;;;;;;;;;;;;;5.33;55.07;101049.44;4416042;32;19974;-82
2021/12/15 04:19:13;;;;;;;;;;;;;;;5.74;53.64;101049.94;4403257;32;19990;-81
2021/12/15 04:21:41;;;;;;;;;;;;;;;5.81;53.13;101052.97;4416182;32;19982;-82
2021/12/15 04:24:09;;;;;;;;;;;;;;;5.71;53.67;101055.81;4416181;32;20035;-82
2021/12/15 04:26:36;;;;;;;;;;;;;;;5.81;53.32;101046.94;4415983;32;20719;-82
2021/12/15 04:29:03;;;;;;;;;;;;;;;5.66;53.26;101051.22;4416183;32;20008;-82
2021/12/15 04:31:32;;;;;;;;;;;;;;;5.50;53.63;101047.81;4415798;32;20028;-80
2021/12/15 04:34:06;;;;;;;;;;;;;;;5.41;53.83;101054.09;4416055;32;19988;-79
2021/12/15 04:36:35;;;;;;;;;;;;;;;5.45;53.75;101045.78;4415287;32;19996;-79
2021/12/15 04:39:03;;;;;;;;;;;;;;;5.55;53.66;101059.22;4415286;32;19977;-79
2021/12/15 04:41:30;;;;;;;;;;;;;;;5.51;53.42;101067.53;4415988;32;19982;-78
2021/12/15 04:44:11;;;;;;;;;;;;;;;5.53;53.56;101067.66;4413265;32;19993;-80
2021/12/15 04:46:39;;;;;;;;;;;;;;;5.58;53.24;101071.34;4416127;32;20333;-80
2021/12/15 04:49:06;;;;;;;;;;;;;;;5.12;54.47;101077.31;4415089;32;19977;-81
2021/12/15 04:51:33;;;;;;;;;;;;;;;5.62;53.42;101074.97;4415334;32;20013;-80
2021/12/15 04:54:00;;;;;;;;;;;;;;;5.66;53.25;101074.34;4402096;32;19974;-80
2021/12/15 04:56:27;;;;;;;;;;;;;;;5.48;53.73;101072.50;4415949;32;20024;-81
2021/12/15 04:58:56;;;;;;;;;;;;;;;5.58;53.68;101068.75;4401259;32;19985;-79
2021/12/15 05:01:23;;;;;;;;;;;;;;;5.27;54.61;101071.31;4396138;32;19990;-80
2021/12/15 05:03:53;;;;;;;;;;;;;;;5.36;54.42;101076.97;4415875;32;20069;-80
2021/12/15 05:06:21;;;;;;;;;;;;;;;5.48;54.18;101077.63;4398363;32;19982;-78
2021/12/15 05:08:48;;;;;;;;;;;;;;;5.47;54.45;101070.75;4396732;32;19990;-78
2021/12/15 05:11:15;;;;;;;;;;;;;;;5.50;54.16;101081.19;4403470;32;19981;-78
2021/12/15 05:13:42;;;;;;;;;;;;;;;5.44;54.63;101090.22;4413263;32;19982;-77
2021/12/15 05:16:09;;;;;;;;;;;;;;;5.69;53.92;101102.78;4413144;32;19994;-81
2021/12/15 05:18:38;;;;;;;;;;;;;;;5.52;54.31;101095.00;4412904;32;19985;-79
2021/12/15 05:21:06;;;;;;;;;;;;;;;5.63;54.07;101100.75;4415535;32;19985;-79
2021/12/15 05:23:38;;;;;;;;;;;;;;;5.57;54.04;101097.81;4413672;32;19982;-79
2021/12/15 05:26:05;;;;;;;;;;;;;;;5.59;54.00;101102.25;4416273;32;19986;-78
2021/12/15 05:28:32;;;;;;;;;;;;;;;5.53;54.22;101096.78;4413906;32;19994;-79
2021/12/15 05:30:59;;;;;;;;;;;;;;;5.32;54.68;101098.09;4413223;32;19989;-80
2021/12/15 05:33:26;;;;;;;;;;;;;;;5.66;53.71;101108.63;4413791;32;19966;-82
2021/12/15 05:35:54;;;;;;;;;;;;;;;5.51;54.29;101112.88;4414226;32;20039;-80
2021/12/15 05:38:21;;;;;;;;;;;;;;;5.56;54.00;101112.34;4420932;32;20008;-80
2021/12/15 05:40:48;;;;;;;;;;;;;;;5.65;53.52;101106.88;4413988;32;19986;-79
2021/12/15 05:43:15;;;;;;;;;;;;;;;5.79;53.22;101123.03;4418690;32;19981;-80
2021/12/15 05:45:42;;;;;;;;;;;;;;;5.41;54.13;101111.47;4413468;32;20770;-80
2021/12/15 05:48:11;;;;;;;;;;;;;;;5.48;54.13;101118.72;4413476;32;20010;-78
2021/12/15 05:50:38;;;;;;;;;;;;;;;5.41;54.37;101126.88;4399386;32;20022;-77
2021/12/15 05:53:05;;;;;;;;;;;;;;;5.51;54.22;101129.16;4414775;32;19981;-74
2021/12/15 05:55:33;;;;;;;;;;;;;;;5.68;53.61;101136.94;4414542;32;19986;-82
2021/12/15 05:58:00;;;;;;;;;;;;;;;5.48;54.29;101131.56;4414953;32;19982;-84
2021/12/15 06:00:28;;;;;;;;;;;;;;;5.52;54.36;101145.47;4414682;32;20004;-83
2021/12/15 06:02:56;;;;;;;;;;;;;;;5.50;54.34;101141.94;4397634;32;19985;-81
2021/12/15 06:05:23;;;;;;;;;;;;;;;5.43;54.76;101143.28;4399403;32;19990;-84
2021/12/15 06:07:50;;;;;;;;;;;;;;;5.52;54.65;101151.50;4385403;32;19985;-82
2021/12/15 06:10:19;;;;;;;;;;;;;;;5.42;54.85;101154.31;4390213;32;20006;-83
2021/12/15 06:12:48;;;;;;;;;;;;;;;5.55;54.54;101156.81;4400740;32;19982;-85
2021/12/15 06:15:20;;;;;;;;;;;;;;;5.52;54.50;101155.72;4401397;32;20023;-83
2021/12/15 06:17:51;;;;;;;;;;;;;;;5.80;53.54;101164.22;4414877;32;20008;-82
2021/12/15 06:20:18;;;;;;;;;;;;;;;5.75;53.59;101172.47;4414772;32;20523;-87
2021/12/15 06:22:46;;;;;;;;;;;;;;;5.68;53.95;101178.03;4415123;32;19989;-84
2021/12/15 06:25:14;;;;;;;;;;;;;;;5.77;53.47;101188.84;4413316;32;19997;-78
2021/12/15 06:27:41;;;;;;;;;;;;;;;5.68;53.55;101184.09;4415058;32;20394;-83
2021/12/15 06:30:08;;;;;;;;;;;;;;;5.69;53.65;101177.28;4414503;32;19997;-83
2021/12/15 06:32:35;;;;;;;;;;;;;;;5.92;52.72;101173.44;4400772;32;19984;-84
2021/12/15 06:35:03;;;;;;;;;;;;;;;5.81;53.07;101180.53;4414343;32;19986;-85
2021/12/15 06:37:30;;;;;;;;;;;;;;;5.71;53.64;101184.28;4413487;32;19986;-85
2021/12/15 06:39:57;;;;;;;;;;;;;;;5.66;53.76;101179.66;4414346;32;19989;-85
2021/12/15 06:42:23;;;;;;;;;;;;;;;5.75;53.50;101177.62;4414499;32;20027;-81
2021/12/15 06:44:50;;;;;;;;;;;;;;;5.67;53.82;101181.44;4413965;32;20051;-85
2021/12/15 06:57:13;;;;;;;;;;;;;;;5.78;53.58;101190.66;4412509;32;20008;-79
2021/12/15 06:58:27;;;;;;;;;;;;;;;5.73;53.39;101189.47;4414511;32;20362;-87
2021/12/15 07:00:55;;;;;;;;;;;;;;;5.77;53.26;101194.00;4414773;32;20051;-87
2021/12/15 07:03:22;;;;;;;;;;;;;;;5.85;52.89;101190.19;4402632;32;19989;-83
2021/12/15 07:05:52;;;;;;;;;;;;;;;5.84;53.42;101191.00;4417035;32;20319;-92
2021/12/15 07:08:19;;;;;;;;;;;;;;;5.92;53.17;101205.16;4400962;32;19994;-88
2021/12/15 07:10:48;;;;;;;;;;;;;;;5.69;53.87;101208.09;4417363;32;19985;-93
2021/12/15 07:13:16;;;;;;;;;;;;;;;5.68;54.07;101214.00;4416567;32;19970;-90
2021/12/15 07:15:45;;;;;;;;;;;;;;;5.76;53.66;101217.91;4416036;32;20043;-89
2021/12/15 07:18:26;;;;;;;;;;;;;;;5.71;53.82;101209.03;4416640;32;20020;-88
2021/12/15 07:20:54;;;;;;;;;;;;;;;5.97;53.09;101203.75;4395393;32;20048;-79
2021/12/15 07:23:22;;;;;;;;;;;;;;;5.86;53.54;101209.94;4418503;32;20001;-86
2021/12/15 07:25:52;;;;;;;;;;;;;;;5.80;54.01;101214.72;4400903;32;19990;-93
2021/12/15 07:28:21;;;;;;;;;;;;;;;5.78;54.20;101216.34;4416888;32;19989;-87
2021/12/15 07:30:48;;;;;;;;;;;;;;;5.69;54.82;101215.81;4411207;32;20678;-92
2021/12/15 07:33:20;;;;;;;;;;;;;;;5.91;54.48;101213.66;4407797;32;20057;-91
2021/12/15 07:35:47;;;;;;;;;;;;;;;5.98;54.87;101210.66;4416645;32;20571;-91
2021/12/15 07:38:14;;;;;;;;;;;;;;;5.87;55.29;101209.16;4415175;32;19996;-89
2021/12/15 07:40:41;;;;;;;;;;;;;;;6.08;54.85;101206.06;4416809;32;20008;-92
2021/12/15 07:43:11;;;;;;;;;;;;;;;5.89;55.34;101210.09;4416246;32;19991;-94
2021/12/15 07:45:42;;;;;;;;;;;;;;;6.02;54.98;101217.75;4404242;32;19995;-84
2021/12/15 07:48:10;;;;;;;;;;;;;;;6.15;54.25;101210.72;4415182;32;19997;-85
2021/12/15 07:50:37;;;;;;;;;;;;;;;6.11;54.55;101219.06;4399002;32;20008;-95
2021/12/15 07:53:05;;;;;;;;;;;;;;;6.18;54.74;101218.59;4402590;32;20316;-93
2021/12/15 07:55:32;;;;;;;;;;;;;;;6.18;54.92;101221.19;4413122;32;19981;-92
2021/12/15 07:57:59;;;;;;;;;;;;;;;6.26;55.04;101223.37;4415928;32;20002;-90
2021/12/15 08:00:26;;;;;;;;;;;;;;;6.18;55.59;101231.47;4388233;32;20016;-90
2021/12/15 08:02:53;;;;;;;;;;;;;;;6.29;55.97;101232.97;4403560;32;20602;-90
2021/12/15 08:05:20;;;;;;;;;;;;;;;6.12;56.61;101237.13;4414447;32;20350;-92
2021/12/15 08:07:47;;;;;;;;;;;;;;;6.05;57.33;101246.19;4416034;32;19982;-87
2021/12/15 08:10:15;;;;;;;;;;;;;;;5.99;57.75;101248.41;4401295;32;20087;-89
2021/12/15 08:12:42;;;;;;;;;;;;;;;6.15;57.53;101245.03;4414888;32;20400;-91
2021/12/15 08:15:10;;;;;;;;;;;;;;;6.16;57.68;101246.81;4407045;32;19998;-92
2021/12/15 08:17:38;;;;;;;;;;;;;;;6.31;57.07;101251.91;4414161;32;20036;-88
2021/12/15 08:20:07;;;;;;;;;;;;;;;6.51;56.71;101256.50;4415500;32;19982;-89
2021/12/15 08:22:34;;;;;;;;;;;;;;;5.99;58.37;101265.53;4415658;32;20307;-88
2021/12/15 08:25:01;;;;;;;;;;;;;;;6.32;57.92;101264.00;4416035;32;20505;-90
2021/12/15 08:27:28;;;;;;;;;;;;;;;6.51;57.47;101271.06;4415392;32;20001;-90
2021/12/15 08:29:55;;;;;;;;;;;;;;;6.43;58.23;101277.44;4415634;32;20312;-91
2021/12/15 08:32:22;;;;;;;;;;;;;;;6.32;58.86;101282.00;4415860;32;19970;-87
2021/12/15 08:34:48;;;;;;;;;;;;;;;6.62;58.02;101284.50;4402332;32;19998;-93
2021/12/15 08:37:15;;;;;;;;;;;;;;;6.46;58.71;101288.78;4415463;32;20469;-91
2021/12/15 08:39:43;;;;;;;;;;;;;;;6.73;57.85;101293.66;4416101;32;20346;-94
2021/12/15 08:42:11;;;;;;;;;;;;;;;6.67;58.22;101295.94;4411061;32;19974;-91
2021/12/15 08:44:39;;;;;;;;;;;;;;;6.36;59.46;101291.66;4406657;32;20027;-94
2021/12/15 08:47:06;;;;;;;;;;;;;;;6.11;59.97;101288.47;4400037;32;20035;-91
2021/12/15 08:49:33;;;;;;;;;;;;;;;6.79;58.05;101288.84;4410069;32;19986;-92
2021/12/15 08:52:00;;;;;;;;;;;;;;;6.65;58.68;101289.81;4413792;32;20433;-83
2021/12/15 08:54:27;;;;;;;;;;;;;;;6.48;59.26;101292.34;4398351;32;20000;-92
2021/12/15 08:56:55;;;;;;;;;;;;;;;6.83;58.37;101284.75;4411360;32;20000;-96
2021/12/15 08:59:22;;;;;;;;;;;;;;;6.55;59.48;101295.25;4413520;32;20342;-88
2021/12/15 09:01:50;;;;;;;;;;;;;;;6.70;59.14;101293.50;4412537;32;19988;-89
2021/12/15 09:04:18;;;;;;;;;;;;;;;6.84;58.69;101287.44;4419474;32;21499;-83
2021/12/15 09:06:45;;;;;;;;;;;;;;;6.83;58.78;101285.69;4400546;32;19974;-89
2021/12/15 09:09:14;;;;;;;;;;;;;;;6.88;58.66;101291.94;4414335;32;20379;-85
2021/12/15 09:11:41;;;;;;;;;;;;;;;6.97;58.83;101288.97;4414300;32;19986;-90
2021/12/15 09:14:11;;;;;;;;;;;;;;;7.01;59.11;101284.87;4414476;32;20020;-89
2021/12/15 09:16:38;;;;;;;;;;;;;;;6.95;58.93;101281.16;4401285;32;20298;-90
2021/12/15 09:19:06;;;;;;;;;;;;;;;7.04;58.76;101274.75;4413646;32;20031;-87
2021/12/15 09:21:33;;;;;;;;;;;;;;;7.17;58.48;101277.16;4408483;32;19990;-90
2021/12/15 09:24:02;;;;;;;;;;;;;;;7.18;58.56;101281.53;4414465;32;19993;-88
2021/12/15 09:26:29;;;;;;;;;;;;;;;7.28;58.29;101276.06;4414153;32;19990;-91
2021/12/15 09:28:57;;;;;;;;;;;;;;;7.38;58.52;101280.00;4414215;32;20027;-92
2021/12/15 09:31:25;;;;;;;;;;;;;;;7.24;58.75;101279.25;4413859;32;19994;-89
2021/12/15 09:33:53;;;;;;;;;;;;;;;7.37;58.05;101275.62;4414156;32;20005;-86
2021/12/15 09:36:21;;;;;;;;;;;;;;;7.45;57.65;101274.34;4398295;32;20007;-89
2021/12/15 09:38:50;;;;;;;;;;;;;;;7.46;57.83;101276.09;4400538;32;19989;-88
2021/12/15 09:41:17;;;;;;;;;;;;;;;7.73;57.58;101271.50;4414192;32;20770;-89
2021/12/15 09:43:44;;;;;;;;;;;;;;;7.50;58.55;101272.00;4415240;32;19978;-85
2021/12/15 09:46:29;;;;;;;;;;;;;;;7.79;56.94;101271.81;4414118;32;20000;-92
2021/12/15 09:57:24;;;;;;;;;;;;;;;7.97;57.00;101270.94;4414602;32;19990;-91
2021/12/15 10:02:51;;;;;;;;;;;;;;;8.24;56.20;101261.97;4413791;32;19988;-92
2021/12/15 10:10:48;;;;;;;;;;;;;;;8.54;55.22;101272.00;4414468;32;19977;-94
2021/12/15 10:19:18;;;;;;;;;;;;;;;8.80;54.87;101261.19;4411482;32;19986;-92
2021/12/15 10:22:00;;;;;;;;;;;;;;;9.03;53.70;101264.84;4406727;32;20054;-92
2021/12/15 10:24:31;;;;;;;;;;;;;;;8.80;54.46;101266.34;4410899;32;20259;-93
2021/12/15 10:26:59;;;;;;;;;;;;;;;8.94;54.10;101269.59;4398001;32;19982;-92
2021/12/15 10:29:26;;;;;;;;;;;;;;;9.15;53.26;101269.66;4406822;32;20000;-80
2021/12/15 10:31:57;;;;;;;;;;;;;;;8.94;54.45;101268.72;4387390;32;20370;-88
2021/12/15 10:34:24;;;;;;;;;;;;;;;9.24;53.33;101262.31;4414336;32;19974;-92
2021/12/15 10:37:03;;;;;;;;;;;;;;;9.12;54.35;101269.53;4403336;32;20454;-85
2021/12/15 10:39:30;;;;;;;;;;;;;;;9.31;53.57;101272.09;4417103;32;20020;-92
2021/12/15 10:41:56;;;;;;;;;;;;;;;9.30;53.80;101270.34;4416937;32;20669;-95
2021/12/15 10:44:25;;;;;;;;;;;;;;;9.18;54.51;101274.09;4420461;32;20012;-96
2021/12/15 10:46:53;;;;;;;;;;;;;;;9.60;52.74;101264.72;4419271;32;19994;-90
2021/12/15 10:49:24;;;;;;;;;;;;;;;9.49;53.39;101268.56;4414039;32;19974;-93
2021/12/15 10:51:57;;;;;;;;;;;;;;;9.39;53.33;101269.00;4407014;32;20637;-86
2021/12/15 10:54:30;;;;;;;;;;;;;;;9.62;52.71;101272.56;4399912;32;19990;-92
2021/12/15 10:57:03;;;;;;;;;;;;;;;9.74;52.86;101268.81;4414114;32;19987;-87
2021/12/15 10:59:44;;;;;;;;;;;;;;;9.82;52.00;101270.81;4416168;32;20263;-96
2021/12/15 11:02:32;;;;;;;;;;;;;;;9.87;52.00;101269.34;4408796;32;19990;-95
2021/12/15 11:05:21;;;;;;;;;;;;;;;9.62;53.02;101277.75;4389177;32;19990;-92
2021/12/15 11:07:52;;;;;;;;;;;;;;;9.38;53.50;101269.78;4416466;32;19974;-94
2021/12/15 11:10:22;;;;;;;;;;;;;;;9.54;52.69;101270.56;4402282;32;20049;-84
2021/12/15 11:12:57;;;;;;;;;;;;;;;9.91;52.21;101271.22;4402038;32;19970;-89
2021/12/15 11:15:32;;;;;;;;;;;;;;;10.13;50.96;101263.53;4410159;32;20005;-92
2021/12/15 11:18:00;;;;;;;;;;;;;;;10.07;50.86;101263.25;4415544;32;20035;-88
2021/12/15 11:20:27;;;;;;;;;;;;;;;10.15;50.66;101261.88;4416092;32;19982;-84
2021/12/15 11:22:59;;;;;;;;;;;;;;;10.09;51.61;101265.94;4416110;32;19986;-91
2021/12/15 11:25:48;;;;;;;;;;;;;;;9.98;51.30;101257.72;4396145;32;20920;-88
2021/12/15 11:28:14;;;;;;;;;;;;;;;10.29;50.42;101264.19;4384590;32;20033;-84
2021/12/15 11:30:41;;;;;;;;;;;;;;;9.91;51.78;101260.87;4385800;32;19982;-89
2021/12/15 11:33:08;;;;;;;;;;;;;;;10.07;51.82;101260.69;4385225;32;20032;-91
2021/12/15 11:35:43;;;;;;;;;;;;;;;10.33;50.56;101260.87;4385584;32;19979;-85
2021/12/15 11:38:13;;;;;;;;;;;;;;;10.29;50.89;101261.59;4396287;32;19983;-83
2021/12/15 11:40:47;;;;;;;;;;;;;;;10.33;50.99;101260.87;4386111;32;20049;-86
2021/12/15 11:43:26;;;;;;;;;;;;;;;10.48;50.59;101258.91;4397560;32;20439;-92
2021/12/15 11:45:53;;;;;;;;;;;;;;;10.39;51.01;101261.13;4385790;32;20359;-91
2021/12/15 11:48:39;;;;;;;;;;;;;;;10.53;50.77;101254.81;4386887;32;20328;-88
2021/12/15 11:51:06;;;;;;;;;;;;;;;10.38;50.81;101257.66;4394553;32;19982;-87
2021/12/15 11:53:35;;;;;;;;;;;;;;;10.40;50.81;101247.34;4398602;32;20321;-88
2021/12/15 11:56:10;;;;;;;;;;;;;;;10.39;50.95;101249.06;4399183;32;19992;-93
2021/12/15 11:58:37;;;;;;;;;;;;;;;9.99;51.67;101243.97;4398645;32;20002;-82
2021/12/15 12:01:04;;;;;;;;;;;;;;;9.81;52.56;101254.44;4397485;32;20035;-84
2021/12/15 12:03:31;;;;;;;;;;;;;;;10.06;52.07;101260.63;4390001;32;19994;-85
2021/12/15 12:05:57;;;;;;;;;;;;;;;9.99;52.25;101249.16;4398079;32;20024;-90
2021/12/15 12:08:24;;;;;;;;;;;;;;;10.20;51.67;101254.28;4398313;32;19986;-84
2021/12/15 12:10:51;;;;;;;;;;;;;;;10.40;50.73;101247.34;4392059;32;20055;-87
2021/12/15 12:13:39;;;;;;;;;;;;;;;10.38;50.86;101249.00;4399550;32;20041;-80
2021/12/15 12:16:07;;;;;;;;;;;;;;;10.34;51.03;101241.94;4396047;32;19970;-81
2021/12/15 12:18:35;;;;;;;;;;;;;;;10.46;51.05;101234.66;4397988;32;19994;-82
2021/12/15 12:21:04;;;;;;;;;;;;;;;10.43;51.06;101239.72;4399167;32;19986;-81
2021/12/15 12:23:32;;;;;;;;;;;;;;;10.71;50.08;101234.75;4397231;32;19994;-90
2021/12/15 12:26:01;;;;;;;;;;;;;;;10.60;50.00;101241.25;4396403;32;19982;-88
2021/12/15 12:28:30;;;;;;;;;;;;;;;10.67;49.75;101232.91;4399061;32;20039;-85
2021/12/15 12:31:00;;;;;;;;;;;;;;;10.64;49.67;101232.78;4399180;32;20035;-87
2021/12/15 12:33:27;;;;;;;;;;;;;;;10.36;50.16;101240.28;4396051;32;20036;-81
2021/12/15 12:36:14;;;;;;;;;;;;;;;10.39;50.17;101240.41;4398455;32;20489;-81
2021/12/15 12:38:53;;;;;;;;;;;;;;;10.62;49.71;101239.59;4396932;32;20044;-83
2021/12/15 12:41:21;;;;;;;;;;;;;;;10.48;49.89;101245.97;4399782;32;20070;-82
2021/12/15 12:43:50;;;;;;;;;;;;;;;10.43;50.21;101250.06;4399610;32;19986;-82
2021/12/15 13:00:19;;;;;;;;;;;;;;;10.39;49.97;101240.41;4382801;32;19982;-81
2021/12/15 13:02:50;;;;;;;;;;;;;;;10.41;50.47;101236.19;4375974;32;20015;-85
2021/12/15 13:05:26;;;;;;;;;;;;;;;10.45;49.79;101238.06;4398371;32;19986;-84
2021/12/15 13:07:54;;;;;;;;;;;;;;;10.50;49.74;101233.97;4397755;32;20016;-86
2021/12/15 13:10:25;;;;;;;;;;;;;;;10.41;49.71;101228.44;4397933;32;19982;-83
2021/12/15 13:13:10;;;;;;;;;;;;;;;10.42;49.94;101228.47;4394556;32;19989;-78
2021/12/15 13:15:37;;;;;;;;;;;;;;;10.50;49.54;101223.63;4394204;32;19994;-82
2021/12/15 13:18:11;;;;;;;;;;;;;;;10.58;49.21;101224.78;4398917;32;19990;-85
2021/12/15 13:20:38;;;;;;;;;;;;;;;10.44;49.43;101223.37;4410635;32;19979;-82
2021/12/15 13:31:13;;;;;;;;;;;;;;;10.49;48.88;101232.19;4389646;32;20053;-81
2021/12/15 13:33:43;;;;;;;;;;;;;;;10.48;48.74;101230.44;4393318;32;20275;-82
2021/12/15 13:36:23;;;;;;;;;;;;;;;10.47;48.87;101233.84;4393798;32;20356;-81
2021/12/15 13:38:54;;;;;;;;;;;;;;;10.34;48.78;101229.91;4380268;32;19978;-81
2021/12/15 13:41:59;;;;;;;;;;;;;;;10.34;48.85;101236.75;4380930;32;19979;-80
2021/12/15 13:44:27;;;;;;;;;;;;;;;10.32;48.62;101228.06;4387134;32;20377;-79
2021/12/15 13:46:56;;;;;;;;;;;;;;;9.98;49.38;101231.84;4389402;32;19994;-80
2021/12/15 13:49:42;;;;;;;;;;;;;;;10.28;48.95;101241.72;4404608;32;19978;-81
2021/12/15 13:52:11;;;;;;;;;;;;;;;10.28;48.90;101241.72;4393981;32;19982;-81
2021/12/15 13:54:38;;;;;;;;;;;;;;;9.96;49.77;101254.19;4402816;32;19989;-80
2021/12/15 13:57:13;;;;;;;;;;;;;;;10.10;49.32;101247.88;4388354;32;20047;-84
2021/12/15 13:59:42;;;;;;;;;;;;;;;9.94;49.69;101255.81;4387543;32;19994;-81
2021/12/15 14:02:09;;;;;;;;;;;;;;;9.59;50.22;101250.06;4391390;32;20387;-82
2021/12/15 14:04:57;;;;;;;;;;;;;;;9.90;49.46;101248.78;4395940;32;19986;-82
2021/12/15 14:07:44;;;;;;;;;;;;;;;9.75;49.72;101260.22;4386707;32;20742;-83
2021/12/15 14:10:17;;;;;;;;;;;;;;;9.81;49.39;101251.84;4399187;32;20503;-83
2021/12/15 14:12:44;;;;;;;;;;;;;;;9.74;49.86;101248.13;4396117;32;20070;-80
2021/12/15 14:15:29;;;;;;;;;;;;;;;9.80;49.73;101256.97;4370918;32;20072;-79
2021/12/15 14:18:01;;;;;;;;;;;;;;;9.80;49.54;101256.97;4407200;32;20005;-82
2021/12/15 14:20:29;;;;;;;;;;;;;;;9.70;49.88;101256.56;4406205;32;20040;-79
2021/12/15 14:23:01;;;;;;;;;;;;;;;9.70;49.80;101261.75;4400996;32;20823;-81
2021/12/15 14:25:28;;;;;;;;;;;;;;;9.55;50.12;101268.84;4390101;32;19997;-80